createdAt,value
2023-01-04T00:00:31.245Z,1.33
2023-01-04T00:03:01.122Z,0.80
2023-01-04T00:05:30.667Z,0.70
2023-01-04T00:08:00.780Z,1.20
2023-01-04T00:10:30.213Z,1.10
2023-01-04T00:13:00.722Z,1.03
2023-01-04T00:15:30.316Z,1.00
2023-01-04T00:17:59.946Z,1.00
2023-01-04T00:20:29.384Z,0.90
2023-01-04T00:22:59.792Z,0.90
2023-01-04T00:25:29.265Z,0.60
2023-01-04T00:27:58.785Z,0.77
2023-01-04T00:30:28.218Z,0.83
2023-01-04T00:32:59.973Z,1.23
2023-01-04T00:35:45.329Z,0.83
2023-01-04T00:38:02.333Z,1.67
2023-01-04T00:40:31.781Z,1.47
2023-01-04T00:43:01.215Z,1.27
2023-01-04T00:45:30.656Z,0.97
2023-01-04T00:48:00.142Z,1.10
2023-01-04T00:50:29.649Z,1.23
2023-01-04T00:52:59.060Z,0.90
2023-01-04T00:55:28.512Z,0.70
2023-01-04T00:57:59.383Z,0.80
2023-01-04T01:00:28.952Z,1.10
2023-01-04T01:02:58.671Z,0.70
2023-01-04T01:05:29.054Z,1.00
2023-01-04T01:07:59.150Z,0.60
2023-01-04T01:10:28.579Z,0.63
2023-01-04T01:12:58.021Z,0.80
2023-01-04T01:15:27.481Z,0.70
2023-01-04T01:17:56.902Z,0.60
2023-01-04T01:20:26.339Z,0.43
2023-01-04T01:22:55.780Z,0.60
2023-01-04T01:25:25.208Z,0.90
2023-01-04T01:27:54.657Z,0.60
2023-01-04T01:30:24.083Z,0.60
2023-01-04T01:32:53.548Z,0.60
2023-01-04T01:35:22.997Z,0.60
2023-01-04T01:37:52.457Z,1.00
2023-01-04T01:40:21.881Z,0.73
2023-01-04T01:42:51.537Z,0.50
2023-01-04T01:45:34.264Z,1.00
2023-01-04T01:48:20.311Z,1.10
2023-01-04T01:50:57.304Z,1.20
2023-01-04T01:53:29.467Z,0.97
2023-01-04T01:56:01.104Z,1.07
2023-01-04T01:58:38.171Z,1.00
2023-01-04T02:01:08.834Z,0.80
2023-01-04T02:03:44.187Z,0.60
2023-01-04T02:06:17.793Z,0.83
2023-01-04T02:08:49.903Z,0.80
2023-01-04T02:11:19.348Z,0.90
2023-01-04T02:14:07.336Z,0.60
2023-01-04T02:16:59.850Z,1.27
2023-01-04T02:19:59.878Z,1.00
2023-01-04T02:22:50.557Z,0.60
2023-01-04T02:26:04.263Z,0.90
2023-01-04T02:29:11.969Z,0.60
2023-01-04T02:31:57.433Z,0.60
2023-01-04T02:34:58.572Z,0.90
2023-01-04T02:37:43.259Z,0.70
2023-01-04T02:40:37.803Z,0.50
2023-01-04T02:43:32.718Z,0.90
2023-01-04T02:46:09.423Z,0.90
2023-01-04T02:49:00.778Z,1.00
2023-01-04T02:51:36.786Z,0.70
2023-01-04T02:54:13.327Z,1.00
2023-01-04T02:57:05.579Z,1.23
2023-01-04T03:00:00.852Z,1.10
2023-01-04T03:03:04.235Z,0.80
2023-01-04T03:06:11.102Z,0.80
2023-01-04T03:08:57.107Z,1.10
2023-01-04T03:11:48.992Z,0.83
2023-01-04T03:14:31.908Z,0.70
2023-01-04T03:16:57.005Z,0.50
2023-01-04T03:19:45.814Z,0.70
2023-01-04T03:22:36.289Z,1.10
2023-01-04T03:25:26.798Z,0.70
2023-01-04T03:28:16.378Z,1.10
2023-01-04T03:31:16.926Z,1.00
2023-01-04T03:34:04.759Z,0.80
2023-01-04T03:37:09.134Z,0.70
2023-01-04T03:40:03.942Z,1.17
2023-01-04T03:43:04.519Z,1.10
2023-01-04T03:46:11.575Z,0.97
2023-01-04T03:49:03.630Z,0.97
2023-01-04T03:51:37.911Z,1.00
2023-01-04T03:54:14.681Z,0.80
2023-01-04T03:56:46.929Z,0.80
2023-01-04T03:59:16.415Z,0.93
2023-01-04T04:01:46.689Z,1.00
2023-01-04T04:04:34.559Z,0.57
2023-01-04T04:07:22.262Z,0.80
2023-01-04T04:09:51.722Z,1.13
2023-01-04T04:12:21.144Z,1.13
2023-01-04T04:14:50.617Z,1.30
2023-01-04T04:17:20.022Z,1.00
2023-01-04T04:19:49.471Z,1.60
2023-01-04T04:22:18.907Z,1.02
2023-01-04T04:24:48.351Z,1.47
2023-01-04T04:27:17.777Z,1.10
2023-01-04T04:29:47.257Z,1.00
2023-01-04T04:32:16.736Z,1.23
2023-01-04T04:34:46.197Z,1.07
2023-01-04T04:37:15.694Z,0.97
2023-01-04T04:39:45.134Z,0.80
2023-01-04T04:42:14.566Z,0.93
2023-01-04T04:44:44.008Z,1.10
2023-01-04T04:47:13.476Z,0.87
2023-01-04T04:49:42.928Z,1.20
2023-01-04T04:52:12.357Z,1.13
2023-01-04T04:54:41.796Z,0.73
2023-01-04T04:57:11.225Z,0.70
2023-01-04T04:59:40.682Z,0.70
2023-01-04T05:02:10.332Z,1.20
2023-01-04T05:04:39.856Z,1.10
2023-01-04T05:07:12.595Z,0.90
2023-01-04T05:09:40.732Z,1.37
2023-01-04T05:12:31.378Z,1.53
2023-01-04T05:15:00.849Z,1.17
2023-01-04T05:17:30.375Z,1.17
2023-01-04T05:19:59.821Z,1.70
2023-01-04T05:22:29.288Z,1.90
2023-01-04T05:24:58.750Z,1.57
2023-01-04T05:27:28.168Z,1.50
2023-01-04T05:30:15.489Z,1.10
2023-01-04T05:32:45.336Z,2.00
2023-01-04T05:35:14.813Z,1.07
2023-01-04T05:37:44.596Z,1.10
2023-01-04T05:40:14.120Z,1.37
2023-01-04T05:42:43.813Z,1.33
2023-01-04T05:45:14.499Z,1.00
2023-01-04T05:47:44.461Z,0.83
2023-01-04T05:50:13.915Z,0.83
2023-01-04T05:52:43.337Z,0.80
2023-01-04T05:55:13.037Z,0.70
2023-01-04T05:57:42.987Z,1.00
2023-01-04T06:00:14.706Z,1.20
2023-01-04T06:02:45.516Z,1.07
2023-01-04T06:05:15.784Z,1.03
2023-01-04T06:07:45.370Z,0.93
2023-01-04T06:10:16.009Z,0.70
2023-01-04T06:12:46.578Z,1.10
2023-01-04T06:15:16.297Z,1.03
2023-01-04T06:17:47.504Z,1.20
2023-01-04T06:20:17.020Z,1.07
2023-01-04T06:22:46.470Z,1.20
2023-01-04T06:25:16.049Z,0.80
2023-01-04T06:27:45.671Z,0.73
2023-01-04T06:30:15.140Z,0.60
2023-01-04T06:32:44.554Z,0.60
2023-01-04T06:35:14.017Z,0.90
2023-01-04T06:37:43.451Z,0.70
2023-01-04T06:40:13.114Z,0.70
2023-01-04T06:42:45.349Z,0.70
2023-01-04T06:45:17.104Z,0.70
2023-01-04T06:47:48.185Z,0.63
2023-01-04T06:50:17.774Z,0.60
2023-01-04T06:52:47.210Z,0.60
2023-01-04T06:55:16.676Z,0.70
2023-01-04T06:57:46.103Z,0.63
2023-01-04T07:00:16.575Z,0.90
2023-01-04T07:03:14.409Z,0.67
2023-01-04T07:05:17.523Z,0.70
2023-01-04T07:07:46.968Z,0.80
2023-01-04T07:10:16.524Z,0.50
2023-01-04T07:12:46.640Z,0.30
2023-01-04T07:15:43.167Z,0.40
2023-01-04T07:17:50.111Z,0.60
2023-01-04T07:20:19.970Z,0.50
2023-01-04T07:22:49.381Z,0.70
2023-01-04T07:25:18.900Z,0.80
2023-01-04T07:27:53.871Z,0.87
2023-01-04T07:30:25.462Z,0.60
2023-01-04T07:32:56.904Z,0.80
2023-01-04T07:35:27.032Z,0.60
2023-01-04T07:37:59.124Z,1.10
2023-01-04T07:40:28.348Z,0.60
2023-01-04T07:42:59.792Z,0.50
2023-01-04T07:45:29.268Z,0.47
2023-01-04T07:47:59.988Z,0.40
2023-01-04T07:50:29.428Z,0.50
2023-01-04T07:52:58.872Z,0.57
2023-01-04T07:55:28.313Z,0.50
2023-01-04T07:57:57.762Z,0.60
2023-01-04T08:00:27.257Z,0.50
2023-01-04T08:02:57.035Z,0.43
2023-01-04T08:05:26.913Z,0.60
2023-01-04T08:07:56.350Z,0.67
2023-01-04T08:10:25.812Z,0.60
2023-01-04T08:12:55.237Z,0.77
2023-01-04T08:15:24.748Z,0.63
2023-01-04T08:17:54.180Z,0.50
2023-01-04T08:20:23.794Z,0.40
2023-01-04T08:22:53.224Z,0.60
2023-01-04T08:25:22.681Z,0.80
2023-01-04T08:27:52.098Z,0.40
2023-01-04T08:30:21.679Z,0.47
2023-01-04T08:32:52.692Z,0.60
2023-01-04T08:35:22.656Z,0.60
2023-01-04T08:37:52.097Z,0.47
2023-01-04T08:40:21.531Z,0.47
2023-01-04T08:42:51.001Z,0.70
2023-01-04T08:45:20.451Z,0.30
2023-01-04T08:47:49.870Z,0.37
2023-01-04T08:50:20.481Z,0.40
2023-01-04T08:52:49.899Z,0.57
2023-01-04T08:55:23.273Z,0.50
2023-01-04T08:57:50.503Z,0.60
2023-01-04T09:00:21.821Z,0.60
2023-01-04T09:02:51.635Z,0.70
2023-01-04T09:05:22.239Z,0.53
2023-01-04T09:07:52.921Z,0.40
2023-01-04T09:10:22.513Z,0.57
2023-01-04T09:12:51.954Z,1.00
2023-01-04T09:15:21.477Z,0.60
2023-01-04T09:18:29.351Z,0.70
2023-01-04T09:20:24.749Z,0.67
2023-01-04T09:22:54.247Z,0.40
2023-01-04T09:25:23.711Z,0.70
2023-01-04T09:27:53.141Z,0.50
2023-01-04T09:30:22.657Z,0.67
2023-01-04T09:32:52.103Z,0.73
2023-01-04T09:35:21.558Z,0.40
2023-01-04T09:37:50.992Z,0.50
2023-01-04T09:40:28.163Z,0.30
2023-01-04T09:43:21.413Z,0.70
2023-01-04T09:45:32.243Z,0.30
2023-01-04T09:48:17.826Z,0.50
2023-01-04T09:51:02.378Z,0.60
2023-01-04T09:53:39.156Z,0.87
2023-01-04T09:56:16.186Z,0.60
2023-01-04T09:58:46.127Z,0.50
2023-01-04T10:01:20.170Z,1.00
2023-01-04T10:04:18.621Z,0.83
2023-01-04T10:06:48.537Z,0.70
2023-01-04T10:09:19.263Z,0.90
2023-01-04T10:11:55.976Z,0.97
2023-01-04T10:14:41.290Z,0.70
2023-01-04T10:23:27.964Z,1.03
2023-01-04T10:26:02.083Z,0.60
2023-01-04T10:29:12.089Z,0.77
2023-01-04T10:31:49.264Z,0.83
2023-01-04T10:34:41.242Z,0.90
2023-01-04T10:37:27.851Z,0.70
2023-01-04T10:39:58.388Z,0.60
2023-01-04T10:42:56.446Z,0.80
2023-01-04T10:45:48.772Z,0.60
2023-01-04T10:48:54.447Z,0.63
2023-01-04T10:51:28.504Z,0.80
2023-01-04T10:54:02.794Z,0.63
2023-01-04T10:56:54.378Z,0.57
2023-01-04T10:59:46.503Z,0.50
2023-01-04T11:02:23.345Z,0.50
2023-01-04T11:05:00.422Z,0.63
2023-01-04T11:07:48.634Z,0.53
2023-01-04T11:10:40.784Z,0.60
2023-01-04T11:13:10.402Z,0.67
2023-01-04T11:15:41.473Z,0.60
2023-01-04T11:18:13.999Z,0.73
2023-01-04T11:20:45.477Z,0.50
2023-01-04T11:23:23.121Z,0.40
2023-01-04T11:26:02.460Z,0.50
2023-01-04T11:28:51.133Z,0.40
2023-01-04T11:31:49.275Z,0.60
2023-01-04T11:34:18.651Z,0.77
2023-01-04T11:36:49.148Z,0.70
2023-01-04T11:39:27.773Z,0.40
2023-01-04T11:42:06.765Z,0.50
2023-01-04T11:44:37.534Z,0.50
2023-01-04T11:47:26.664Z,0.77
2023-01-04T11:49:56.228Z,0.60
2023-01-04T11:52:40.222Z,0.47
2023-01-04T11:55:31.650Z,0.50
2023-01-04T11:58:17.414Z,0.40
2023-01-04T12:00:57.029Z,0.67
2023-01-04T12:03:40.381Z,0.70
2023-01-04T12:06:38.695Z,0.40
2023-01-04T12:09:14.434Z,0.50
2023-01-04T12:11:50.981Z,0.70
2023-01-04T12:14:38.299Z,0.80
2023-01-04T12:17:24.330Z,0.57
2023-01-04T12:19:58.239Z,0.40
2023-01-04T12:22:38.276Z,0.60
2023-01-04T12:25:35.936Z,0.60
2023-01-04T12:28:05.872Z,1.17
2023-01-04T12:30:44.229Z,0.87
2023-01-04T12:33:36.345Z,0.83
2023-01-04T12:36:13.039Z,1.13
2023-01-04T12:39:02.000Z,1.00
2023-01-04T12:41:43.422Z,1.00
2023-01-04T12:44:48.031Z,1.70
2023-01-04T12:47:51.583Z,1.50
2023-01-04T12:50:26.057Z,1.10
2023-01-04T12:55:44.278Z,1.43
2023-01-04T12:59:24.108Z,0.90
2023-01-04T13:01:11.241Z,0.97
2023-01-04T13:03:48.861Z,0.80
2023-01-04T13:06:22.239Z,0.70
2023-01-04T13:08:54.229Z,0.80
2023-01-04T13:11:54.144Z,1.00
2023-01-04T13:14:30.760Z,0.67
2023-01-04T13:17:17.255Z,0.40
2023-01-04T13:19:47.924Z,0.77
2023-01-04T13:22:29.272Z,0.40
2023-01-04T13:24:58.692Z,0.40
2023-01-04T13:27:28.713Z,0.77
2023-01-04T13:29:58.170Z,0.73
2023-01-04T13:32:59.526Z,0.93
2023-01-04T13:35:15.292Z,1.00
2023-01-04T13:37:47.870Z,0.70
2023-01-04T13:40:31.590Z,0.70
2023-01-04T13:43:32.930Z,0.63
2023-01-04T13:46:20.867Z,0.57
2023-01-04T13:48:54.437Z,0.53
2023-01-04T13:51:36.142Z,0.60
2023-01-04T13:54:07.441Z,0.63
2023-01-04T13:56:36.962Z,0.80
2023-01-04T13:59:06.440Z,0.50
2023-01-04T14:01:40.647Z,0.50
2023-01-04T14:04:23.790Z,0.90
2023-01-04T14:06:57.886Z,1.50
2023-01-04T14:09:32.851Z,1.63
2023-01-04T14:12:15.458Z,1.43
2023-01-04T14:15:00.727Z,1.57
2023-01-04T14:17:49.115Z,1.10
2023-01-04T14:20:25.997Z,1.00
2023-01-04T14:23:00.345Z,0.90
2023-01-04T14:25:47.356Z,0.90
2023-01-04T14:28:30.366Z,1.00
2023-01-04T14:31:13.628Z,1.00
2023-01-04T14:33:50.826Z,0.50
2023-01-04T14:36:33.020Z,0.90
2023-01-04T14:39:13.269Z,1.30
2023-01-04T14:41:58.115Z,1.20
2023-01-04T14:44:31.281Z,1.33
2023-01-04T14:47:04.884Z,0.80
2023-01-04T14:49:34.376Z,0.70
2023-01-04T14:52:08.035Z,0.93
2023-01-04T14:54:39.208Z,1.10
2023-01-04T14:57:10.287Z,1.10
2023-01-04T14:59:39.795Z,0.80
2023-01-04T15:02:11.181Z,0.70
2023-01-04T15:04:41.131Z,0.60
2023-01-04T15:07:33.842Z,0.80
2023-01-04T15:10:05.538Z,0.70
2023-01-04T15:12:34.950Z,1.30
2023-01-04T15:15:04.497Z,1.83
2023-01-04T15:17:34.430Z,1.70
2023-01-04T15:20:04.569Z,1.50
2023-01-04T15:22:33.996Z,1.20
2023-01-04T15:25:03.440Z,0.97
2023-01-04T15:27:38.376Z,0.60
2023-01-04T15:30:04.479Z,0.80
2023-01-04T15:32:37.158Z,0.50
2023-01-04T15:35:07.515Z,0.70
2023-01-04T15:37:36.952Z,0.73
2023-01-04T15:40:07.177Z,0.60
2023-01-04T15:42:55.709Z,0.70
2023-01-04T15:45:25.651Z,0.40
2023-01-04T15:47:57.103Z,0.53
2023-01-04T15:50:26.814Z,0.50
2023-01-04T15:52:56.363Z,0.53
2023-01-04T15:55:30.833Z,0.60
2023-01-04T15:57:57.413Z,0.40
2023-01-04T16:00:27.036Z,1.27
2023-01-04T16:02:56.582Z,1.13
2023-01-04T16:05:26.160Z,0.73
2023-01-04T16:07:56.375Z,1.37
2023-01-04T16:10:26.705Z,1.63
2023-01-04T16:12:57.284Z,1.10
2023-01-04T16:15:26.891Z,1.00
2023-01-04T16:17:56.355Z,1.00
2023-01-04T16:20:25.864Z,0.60
2023-01-04T16:22:55.309Z,0.50
2023-01-04T16:25:24.758Z,0.63
2023-01-04T16:27:54.317Z,0.40
2023-01-04T16:30:29.543Z,0.40
2023-01-04T16:32:54.944Z,0.30
2023-01-04T16:35:24.445Z,0.30
2023-01-04T16:37:53.868Z,0.40
2023-01-04T16:40:24.516Z,0.40
2023-01-04T16:42:53.963Z,0.60
2023-01-04T16:45:23.406Z,1.57
2023-01-04T16:47:53.768Z,1.10
2023-01-04T16:50:23.340Z,1.07
2023-01-04T16:52:52.802Z,0.93
2023-01-04T16:55:24.298Z,0.60
2023-01-04T16:57:53.758Z,0.40
2023-01-04T17:00:23.878Z,0.57
2023-01-04T17:02:53.396Z,0.50
2023-01-04T17:05:22.864Z,0.50
2023-01-04T17:07:52.716Z,0.30
2023-01-04T17:10:27.434Z,0.30
2023-01-04T17:12:53.329Z,0.40
2023-01-04T17:15:42.571Z,0.60
2023-01-04T17:17:53.950Z,0.30
2023-01-04T17:20:23.406Z,0.35
2023-01-04T17:22:53.057Z,0.30
2023-01-04T17:25:22.513Z,0.50
2023-01-04T17:27:51.975Z,0.40
2023-01-04T17:30:21.487Z,0.40
2023-01-04T17:32:50.937Z,0.50
2023-01-04T17:35:20.399Z,0.30
2023-01-04T17:37:49.919Z,0.23
2023-01-04T17:40:23.253Z,0.30
2023-01-04T17:42:50.957Z,0.40
2023-01-04T17:45:20.550Z,0.30
2023-01-04T17:47:50.176Z,0.50
2023-01-04T17:50:20.645Z,0.60
2023-01-04T17:52:53.669Z,0.40
2023-01-04T17:55:23.166Z,0.40
2023-01-04T17:57:52.652Z,0.30
2023-01-04T18:00:22.259Z,0.40
2023-01-04T18:02:51.776Z,0.40
2023-01-04T18:05:21.231Z,0.30
2023-01-04T18:07:50.688Z,0.30
2023-01-04T18:10:40.488Z,0.33
2023-01-04T18:12:51.404Z,0.33
2023-01-04T18:15:20.838Z,0.20
2023-01-04T18:17:50.300Z,0.23
2023-01-04T18:20:24.979Z,0.30
2023-01-04T18:22:50.929Z,0.30
2023-01-04T18:25:20.865Z,0.30
2023-01-04T18:27:50.308Z,0.53
2023-01-04T18:30:19.836Z,0.40
2023-01-04T18:32:49.288Z,0.50
2023-01-04T18:35:18.835Z,0.47
2023-01-04T18:37:48.288Z,0.60
2023-01-04T18:40:17.736Z,0.40
2023-01-04T18:42:51.099Z,0.30
2023-01-04T18:45:21.336Z,0.30
2023-01-04T18:47:52.161Z,0.30
2023-01-04T18:50:21.607Z,0.33
2023-01-04T18:52:51.051Z,0.40
2023-01-04T18:55:20.527Z,0.60
2023-01-04T18:57:50.119Z,0.50
2023-01-04T19:00:19.709Z,0.40
2023-01-04T19:02:49.384Z,0.40
2023-01-04T19:05:19.350Z,0.60
2023-01-04T19:07:50.358Z,0.30
2023-01-04T19:10:19.948Z,0.50
2023-01-04T19:12:49.397Z,0.53
2023-01-04T19:15:18.946Z,0.70
2023-01-04T19:17:48.423Z,0.50
2023-01-04T19:20:18.049Z,0.73
2023-01-04T19:22:47.500Z,0.50
2023-01-04T19:25:16.956Z,0.57
2023-01-04T19:27:46.390Z,0.53
2023-01-04T19:30:16.858Z,0.57
2023-01-04T19:32:46.292Z,0.40
2023-01-04T19:35:15.779Z,0.33
2023-01-04T19:37:45.203Z,0.50
2023-01-04T19:40:14.672Z,0.30
2023-01-04T19:42:44.492Z,0.37
2023-01-04T19:45:14.140Z,0.30
2023-01-04T19:47:43.652Z,0.37
2023-01-04T19:50:13.601Z,0.40
2023-01-04T19:52:43.067Z,0.40
2023-01-04T19:55:13.246Z,0.33
2023-01-04T19:57:42.695Z,0.40
2023-01-04T20:00:13.305Z,0.40
2023-01-04T20:02:43.455Z,0.40
2023-01-04T20:05:12.986Z,0.53
2023-01-04T20:07:44.307Z,0.50
2023-01-04T20:10:14.831Z,0.40
2023-01-04T20:12:44.451Z,0.40
2023-01-04T20:15:14.295Z,0.40
2023-01-04T20:17:43.783Z,0.30
2023-01-04T20:20:13.228Z,0.30
2023-01-04T20:22:42.667Z,0.40
2023-01-04T20:25:12.399Z,0.40
2023-01-04T20:27:41.914Z,0.40
2023-01-04T20:30:12.323Z,0.50
2023-01-04T20:32:41.781Z,0.53
2023-01-04T20:35:11.772Z,0.40
2023-01-04T20:37:41.218Z,0.27
2023-01-04T20:40:12.225Z,0.40
2023-01-04T20:42:59.359Z,0.70
2023-01-04T20:45:28.834Z,0.40
2023-01-04T20:47:58.931Z,0.50
2023-01-04T20:50:28.403Z,0.40
2023-01-04T20:52:57.847Z,0.40
2023-01-04T20:55:27.305Z,0.30
2023-01-04T20:57:56.745Z,0.40
2023-01-04T21:00:26.400Z,0.43
2023-01-04T21:02:56.106Z,0.30
2023-01-04T21:05:25.782Z,0.30
2023-01-04T21:07:55.214Z,0.23
2023-01-04T21:10:24.668Z,0.40
2023-01-04T21:12:54.108Z,0.50
2023-01-04T21:15:23.594Z,0.40
2023-01-04T21:17:53.059Z,0.40
2023-01-04T21:20:24.218Z,0.30
2023-01-04T21:22:53.692Z,0.40
2023-01-04T21:25:23.677Z,0.70
2023-01-04T21:27:53.121Z,0.30
2023-01-04T21:30:23.143Z,0.40
2023-01-04T21:32:55.064Z,0.40
2023-01-04T21:35:23.793Z,0.30
2023-01-04T21:37:53.228Z,0.50
2023-01-04T21:40:22.729Z,0.43
2023-01-04T21:42:52.168Z,0.40
2023-01-04T21:45:21.633Z,0.60
2023-01-04T21:47:51.150Z,0.60
2023-01-04T21:50:21.124Z,0.57
2023-01-04T21:52:50.567Z,0.30
2023-01-04T21:55:20.097Z,0.50
2023-01-04T21:57:49.556Z,0.67
2023-01-04T22:00:19.015Z,0.55
2023-01-04T22:02:48.841Z,0.47
2023-01-04T22:05:18.496Z,0.23
2023-01-04T22:07:47.973Z,0.20
2023-01-04T22:10:17.499Z,0.57
2023-01-04T22:12:49.741Z,0.57
2023-01-04T22:15:19.280Z,0.40
2023-01-04T22:17:48.736Z,0.30
2023-01-04T22:20:18.590Z,0.50
2023-01-04T22:22:48.201Z,0.50
2023-01-04T22:25:17.728Z,0.40
2023-01-04T22:27:52.381Z,0.33
2023-01-04T22:30:21.835Z,0.50
2023-01-04T22:32:51.277Z,0.50
2023-01-04T22:35:20.905Z,0.20
2023-01-04T22:37:50.886Z,0.50
2023-01-04T22:40:20.350Z,0.43
2023-01-04T22:42:49.800Z,0.47
2023-01-04T22:45:19.263Z,0.30
2023-01-04T22:47:48.724Z,0.40
2023-01-04T22:50:18.171Z,0.40
2023-01-04T22:52:51.049Z,0.50
2023-01-04T22:55:18.811Z,0.53
2023-01-04T22:57:48.581Z,0.47
2023-01-04T23:00:18.373Z,0.40
2023-01-04T23:02:47.856Z,0.40
2023-01-04T23:05:17.874Z,0.50
2023-01-04T23:07:47.325Z,0.40
2023-01-04T23:10:16.777Z,0.70
2023-01-04T23:12:46.369Z,0.30
2023-01-04T23:15:16.156Z,0.40
2023-01-04T23:17:45.607Z,0.43
2023-01-04T23:20:20.271Z,0.60
2023-01-04T23:22:46.240Z,0.37
2023-01-04T23:25:15.709Z,0.40
2023-01-04T23:27:45.194Z,0.40
2023-01-04T23:30:16.296Z,0.50
2023-01-04T23:32:45.744Z,0.40
2023-01-04T23:35:15.982Z,0.43
2023-01-04T23:37:45.421Z,0.60
2023-01-04T23:40:14.892Z,0.50
2023-01-04T23:42:44.319Z,0.70
2023-01-04T23:45:13.787Z,0.60
2023-01-04T23:47:43.218Z,0.80
2023-01-04T23:50:12.705Z,0.60
2023-01-04T23:52:42.149Z,0.47
2023-01-04T23:55:12.446Z,0.40
2023-01-04T23:57:41.919Z,0.80
